Time;durP1;ratioP1;P1;durP2;ratioP2;P2;SDS_P1;SDS_P2;PMS_P1;PMS_P2;Temp;Humidity;BMP_temperature;BMP_pressure;BME280_temperature;BME280_humidity;BME280_pressure;Samples;Min_cycle;Max_cycle;Signal;HPM_P1;HPM_P2
2022/09/22 00:01:42;;;;;;;12.05;8.45;;;;;;;7.68;79.45;102423.44;5036025;28;20033;-78
2022/09/22 00:04:11;;;;;;;10.02;8.38;;;;;;;7.65;79.60;102415.63;5043682;28;20140;-78
2022/09/22 00:06:40;;;;;;;10.90;7.32;;;;;;;7.62;79.29;102414.69;5047862;28;20463;-78
2022/09/22 00:09:08;;;;;;;9.38;7.82;;;;;;;7.60;79.50;102410.34;5038173;28;20041;-78
2022/09/22 00:11:39;;;;;;;14.02;7.32;;;;;;;7.61;79.50;102416.44;5041580;28;20048;-78
2022/09/22 00:14:06;;;;;;;9.05;7.25;;;;;;;7.62;79.18;102409.50;5034387;28;20040;-78
2022/09/22 00:16:38;;;;;;;10.25;7.22;;;;;;;7.58;79.35;102413.78;5032906;28;20529;-78
2022/09/22 00:19:06;;;;;;;8.50;7.32;;;;;;;7.53;79.91;102410.25;5039752;28;20511;-78
2022/09/22 00:21:31;;;;;;;9.88;7.05;;;;;;;7.49;78.97;102409.38;5039575;28;20491;-78
2022/09/22 00:23:59;;;;;;;7.93;6.57;;;;;;;7.47;79.22;102408.47;5039146;28;20025;-78
2022/09/22 00:26:25;;;;;;;7.90;6.38;;;;;;;7.47;79.38;102399.84;5035244;28;20552;-78
2022/09/22 00:28:50;;;;;;;8.68;6.32;;;;;;;7.44;79.49;102406.72;5051327;28;20185;-78
2022/09/22 00:31:19;;;;;;;8.45;5.93;;;;;;;7.42;79.08;102405.84;5037872;28;20048;-78
2022/09/22 00:33:45;;;;;;;7.55;5.00;;;;;;;7.41;79.00;102409.28;5040025;28;20033;-78
2022/09/22 00:36:11;;;;;;;6.55;5.55;;;;;;;7.38;79.43;102401.47;5047822;28;20082;-78
2022/09/22 00:38:38;;;;;;;10.32;6.53;;;;;;;7.40;79.43;102409.25;5034442;28;20043;-78
2022/09/22 00:41:04;;;;;;;9.45;7.10;;;;;;;7.38;79.46;102404.03;5030098;28;20055;-78
2022/09/22 00:43:34;;;;;;;11.75;6.00;;;;;;;7.34;79.09;102402.28;5045844;28;20021;-78
2022/09/22 00:46:09;;;;;;;5.80;4.93;;;;;;;7.33;79.03;102410.03;5048044;28;20433;-78
2022/09/22 00:48:43;;;;;;;6.25;4.47;;;;;;;7.29;78.79;102404.78;5035763;28;20291;-78
2022/09/22 00:51:09;;;;;;;5.28;4.10;;;;;;;7.25;78.75;102396.97;5039480;28;20043;-78
2022/09/22 00:53:35;;;;;;;8.18;4.68;;;;;;;7.21;78.39;102397.78;5045499;28;20297;-78
2022/09/22 00:56:14;;;;;;;5.57;4.22;;;;;;;7.19;78.40;102391.72;5050380;28;20244;-78
2022/09/22 00:58:45;;;;;;;9.98;4.15;;;;;;;7.16;78.93;102391.69;5038758;28;20032;-78
2022/09/22 01:01:10;;;;;;;8.77;4.70;;;;;;;7.14;79.36;102387.38;5038081;28;20074;-76
2022/09/22 01:03:38;;;;;;;9.00;4.63;;;;;;;7.14;79.20;102387.38;5041874;28;20029;-74
2022/09/22 01:06:06;;;;;;;7.70;4.93;;;;;;;7.14;79.35;102386.47;5046230;28;21670;-75
2022/09/22 01:08:33;;;;;;;8.32;5.13;;;;;;;7.13;79.43;102387.31;5038039;28;20170;-75
2022/09/22 01:10:59;;;;;;;7.57;6.13;;;;;;;7.13;79.31;102377.84;5035080;28;20021;-76
2022/09/22 01:13:34;;;;;;;11.20;7.50;;;;;;;7.13;79.20;102375.28;5039581;28;20484;-75
2022/09/22 01:16:23;;;;;;;12.43;7.70;;;;;;;7.12;79.37;102383.88;5049178;28;20116;-75
2022/09/22 01:19:21;;;;;;;10.82;6.70;;;;;;;7.10;79.16;102376.94;5049678;28;20510;-75
2022/09/22 01:22:19;;;;;;;9.23;5.80;;;;;;;7.07;78.92;102372.59;5048339;28;20024;-75
2022/09/22 01:24:54;;;;;;;7.43;5.22;;;;;;;7.03;79.33;102370.81;5048649;28;20401;-75
2022/09/22 01:27:31;;;;;;;8.07;5.15;;;;;;;7.01;79.42;102362.13;5036533;28;20039;-75
2022/09/22 01:30:08;;;;;;;8.95;6.05;;;;;;;7.01;79.35;102361.28;5043517;28;20108;-75
2022/09/22 01:32:42;;;;;;;9.65;6.85;;;;;;;6.99;79.35;102358.69;5050908;28;20052;-76
2022/09/22 01:35:30;;;;;;;9.40;5.90;;;;;;;6.99;79.37;102359.53;5053771;28;20029;-75
2022/09/22 01:37:55;;;;;;;10.18;6.28;;;;;;;6.99;79.74;102363.88;5042953;28;20036;-75
2022/09/22 01:40:32;;;;;;;9.82;6.32;;;;;;;6.99;79.70;102361.28;5034425;28;20104;-75
2022/09/22 01:43:24;;;;;;;8.60;6.03;;;;;;;6.96;79.44;102354.31;5036549;28;20017;-75
2022/09/22 01:45:52;;;;;;;8.73;5.55;;;;;;;6.91;79.32;102355.13;5046818;28;20029;-76
2022/09/22 01:48:26;;;;;;;9.85;6.18;;;;;;;6.90;79.39;102358.53;5040048;28;20033;-75
2022/09/22 01:50:57;;;;;;;9.30;5.00;;;;;;;6.87;79.06;102353.31;5039216;28;20037;-75
2022/09/22 01:53:33;;;;;;;6.38;5.05;;;;;;;6.86;79.05;102344.72;5046704;28;20435;-75
2022/09/22 01:56:04;;;;;;;8.80;5.22;;;;;;;6.84;79.20;102351.56;5038383;28;20049;-75
2022/09/22 01:58:56;;;;;;;10.32;5.60;;;;;;;6.84;79.10;102344.66;5046429;28;20025;-76
2022/09/22 02:01:27;;;;;;;;;;;;;;;6.87;78.26;102341.28;5034751;28;20036;-75
2022/09/22 02:04:15;;;;;;;6.10;3.78;;;;;;;6.82;79.33;102338.63;5038996;28;20407;-76
2022/09/22 02:06:59;;;;;;;7.70;4.07;;;;;;;6.81;79.48;102338.59;5035657;28;20120;-75
2022/09/22 02:09:28;;;;;;;8.25;4.43;;;;;;;6.79;79.73;102333.41;5045272;28;20025;-76
2022/09/22 02:11:54;;;;;;;10.57;6.00;;;;;;;6.78;79.29;102335.94;5046011;28;20040;-76
2022/09/22 02:14:20;;;;;;;8.35;5.28;;;;;;;6.74;79.20;102332.47;5051055;28;20383;-75
2022/09/22 02:16:45;;;;;;;7.32;5.45;;;;;;;6.72;79.09;102333.31;5041562;28;20389;-75
2022/09/22 02:19:18;;;;;;;8.75;5.38;;;;;;;6.71;79.87;102335.00;5043017;28;20464;-75
2022/09/22 02:21:45;;;;;;;8.70;6.28;;;;;;;6.71;80.09;102329.81;5041560;28;20036;-76
2022/09/22 02:24:30;;;;;;;10.00;7.00;;;;;;;6.73;79.88;102324.69;5049412;28;20021;-75
2022/09/22 02:27:10;;;;;;;9.50;6.82;;;;;;;6.74;80.19;102322.13;5052366;28;21667;-75
2022/09/22 02:29:41;;;;;;;9.20;6.88;;;;;;;6.72;80.35;102321.22;5043129;28;20488;-75
2022/09/22 02:32:12;;;;;;;10.82;6.90;;;;;;;6.71;80.19;102316.03;5041475;28;20112;-75
2022/09/22 02:34:37;;;;;;;9.32;6.63;;;;;;;6.71;80.24;102321.22;5048664;28;20044;-75
2022/09/22 02:37:09;;;;;;;8.98;6.78;;;;;;;6.69;79.86;102323.75;5042044;28;20120;-75
2022/09/22 02:40:00;;;;;;;8.65;6.22;;;;;;;6.66;79.75;102318.56;5038341;28;20030;-75
2022/09/22 02:42:47;;;;;;;6.82;5.20;;;;;;;6.63;79.25;102310.75;5033387;28;20043;-76
2022/09/22 02:45:20;;;;;;;6.05;4.20;;;;;;;6.56;79.08;102308.91;5046850;28;20408;-75
2022/09/22 02:47:56;;;;;;;6.60;4.32;;;;;;;6.52;79.14;102308.88;5048981;28;20106;-75
2022/09/22 02:50:24;;;;;;;7.03;4.28;;;;;;;6.52;79.61;102308.88;5022625;28;20114;-76
2022/09/22 02:52:51;;;;;;;6.20;4.45;;;;;;;6.49;79.49;102303.66;5051568;28;20411;-76
2022/09/22 02:55:17;;;;;;;6.45;4.30;;;;;;;6.45;79.38;102303.59;5040428;28;20029;-75
2022/09/22 02:57:42;;;;;;;9.45;5.28;;;;;;;6.45;79.26;102306.16;5047147;28;20032;-75
2022/09/22 03:00:09;;;;;;;8.43;5.78;;;;;;;6.43;79.74;102300.09;5044784;28;20025;-75
2022/09/22 03:02:34;;;;;;;9.55;5.88;;;;;;;6.43;79.93;102303.56;5025402;28;20048;-75
2022/09/22 03:04:59;;;;;;;8.02;6.05;;;;;;;6.43;79.60;102301.00;5036505;28;20063;-75
2022/09/22 03:07:25;;;;;;;8.38;6.43;;;;;;;6.44;79.87;102294.09;5041265;28;20134;-76
2022/09/22 03:09:50;;;;;;;10.60;6.95;;;;;;;6.43;80.01;102298.41;5045099;28;20432;-75
2022/09/22 03:12:15;;;;;;;11.50;7.68;;;;;;;6.44;79.56;102294.09;5043581;28;20029;-75
2022/09/22 03:14:41;;;;;;;11.10;8.27;;;;;;;6.43;79.59;102294.94;5035512;28;20036;-75
2022/09/22 03:17:06;;;;;;;10.20;8.48;;;;;;;6.41;79.74;102297.50;5038700;28;20087;-75
2022/09/22 03:19:31;;;;;;;12.70;8.43;;;;;;;6.40;79.39;102298.34;5044485;28;20109;-76
2022/09/22 03:21:56;;;;;;;10.93;8.02;;;;;;;6.37;79.47;102285.38;5042160;28;20033;-75
2022/09/22 03:24:22;;;;;;;12.23;8.77;;;;;;;6.36;79.68;102288.81;5044007;28;20029;-75
2022/09/22 03:26:47;;;;;;;15.13;9.10;;;;;;;6.34;79.54;102293.97;5041983;28;20416;-75
2022/09/22 03:29:12;;;;;;;10.73;8.27;;;;;;;6.32;79.38;102289.63;5033522;28;20075;-75
2022/09/22 03:31:37;;;;;;;11.27;8.02;;;;;;;6.30;79.44;102286.16;5040259;28;20108;-75
2022/09/22 03:34:03;;;;;;;10.75;7.95;;;;;;;6.27;79.96;102288.69;5036524;28;20430;-75
2022/09/22 03:36:28;;;;;;;9.90;7.30;;;;;;;6.24;79.75;102273.97;5032751;28;20036;-75
2022/09/22 03:38:53;;;;;;;11.43;7.15;;;;;;;6.22;79.83;102286.03;5039738;28;20033;-75
2022/09/22 03:41:18;;;;;;;9.05;7.20;;;;;;;6.20;79.79;102282.53;5043329;28;20040;-76
2022/09/22 03:43:44;;;;;;;9.38;7.35;;;;;;;6.18;80.04;102279.91;5037136;28;20022;-75
2022/09/22 03:46:09;;;;;;;10.75;7.15;;;;;;;6.17;80.12;102277.31;5032523;28;20105;-75
2022/09/22 03:48:35;;;;;;;8.40;6.45;;;;;;;6.16;80.15;102281.59;5034652;28;20449;-75
2022/09/22 03:51:00;;;;;;;8.38;6.18;;;;;;;6.15;79.53;102285.03;5044890;28;20021;-75
2022/09/22 03:53:25;;;;;;;7.40;5.88;;;;;;;6.16;79.59;102283.34;5037772;28;20063;-75
2022/09/22 03:55:51;;;;;;;7.20;5.50;;;;;;;6.15;79.67;102286.75;5034811;28;20587;-75
2022/09/22 03:58:18;;;;;;;6.25;4.80;;;;;;;6.13;79.34;102281.59;5043953;28;20032;-75
2022/09/22 04:00:44;;;;;;;6.57;5.07;;;;;;;6.11;79.51;102280.69;5044848;28;20487;-76
2022/09/22 04:03:10;;;;;;;7.53;4.82;;;;;;;6.10;78.99;102281.53;5046639;28;20021;-75
2022/09/22 04:05:36;;;;;;;8.13;4.57;;;;;;;6.08;79.10;102284.06;5035931;28;20084;-75
2022/09/22 04:08:01;;;;;;;7.43;4.72;;;;;;;6.09;79.69;102277.19;5051793;28;20049;-76
2022/09/22 04:10:27;;;;;;;6.72;4.93;;;;;;;6.07;79.86;102273.72;5047051;28;20033;-75
2022/09/22 04:12:52;;;;;;;8.10;4.63;;;;;;;6.07;79.63;102265.97;5042997;28;20507;-75
2022/09/22 04:15:17;;;;;;;8.38;4.50;;;;;;;6.06;79.42;102264.22;5049109;28;20115;-77
2022/09/22 04:17:45;;;;;;;7.60;4.93;;;;;;;6.04;79.90;102263.31;5042914;28;20017;-76
2022/09/22 04:20:11;;;;;;;8.27;4.68;;;;;;;6.03;79.72;102269.34;5039759;28;20032;-76
2022/09/22 04:22:37;;;;;;;8.07;4.63;;;;;;;6.03;79.74;102265.06;5040890;28;20029;-75
2022/09/22 04:25:04;;;;;;;7.22;4.43;;;;;;;6.03;79.11;102266.75;5048290;28;20029;-75
2022/09/22 04:27:29;;;;;;;11.02;4.60;;;;;;;5.99;78.88;102270.09;5022118;28;20380;-75
2022/09/22 04:29:55;;;;;;;8.55;4.35;;;;;;;5.95;78.94;102265.75;5045202;28;20029;-75
2022/09/22 04:32:20;;;;;;;9.88;4.38;;;;;;;5.91;79.09;102269.97;5046970;28;20033;-75
2022/09/22 04:34:46;;;;;;;10.70;4.80;;;;;;;5.91;79.26;102264.81;5039686;28;20033;-75
2022/09/22 04:37:12;;;;;;;11.52;4.93;;;;;;;5.88;79.73;102255.31;5039573;28;20032;-75
2022/09/22 04:39:37;;;;;;;10.13;5.47;;;;;;;5.88;80.07;102265.63;5024695;28;20488;-75
2022/09/22 04:42:03;;;;;;;12.68;5.50;;;;;;;5.87;79.79;102263.88;5047801;28;20104;-75
2022/09/22 04:44:28;;;;;;;11.32;5.57;;;;;;;5.86;79.97;102262.16;5039247;28;20477;-75
2022/09/22 04:46:55;;;;;;;8.48;5.28;;;;;;;5.85;79.90;102260.41;5043454;28;20025;-75
2022/09/22 04:49:21;;;;;;;11.52;5.28;;;;;;;5.82;79.51;102255.19;5041814;28;20537;-75
2022/09/22 04:51:46;;;;;;;12.18;5.25;;;;;;;5.82;79.97;102259.50;5048660;28;20033;-76
2022/09/22 04:54:13;;;;;;;12.15;6.72;;;;;;;5.81;79.58;102250.88;5039151;28;20111;-76
2022/09/22 04:56:39;;;;;;;11.25;6.35;;;;;;;5.81;80.38;102263.78;5047339;28;20112;-75
2022/09/22 04:59:04;;;;;;;12.02;6.93;;;;;;;5.82;80.38;102262.94;5024110;28;20025;-75
2022/09/22 05:01:30;;;;;;;8.55;6.18;;;;;;;5.82;80.64;102262.94;5046226;28;20079;-75
2022/09/22 05:03:55;;;;;;;9.82;6.28;;;;;;;5.83;80.33;102266.41;5044855;28;20041;-75
2022/09/22 05:06:20;;;;;;;8.50;6.07;;;;;;;5.83;80.46;102259.50;5038598;28;20052;-75
2022/09/22 05:08:45;;;;;;;8.98;6.72;;;;;;;5.83;80.25;102259.50;5048848;28;20029;-76
2022/09/22 05:11:11;;;;;;;11.00;6.90;;;;;;;5.81;80.32;102258.59;5038913;28;20053;-75
2022/09/22 05:13:39;;;;;;;10.45;7.22;;;;;;;5.82;80.14;102268.09;5051455;28;20511;-75
2022/09/22 05:16:05;;;;;;;11.35;6.78;;;;;;;5.80;79.72;102266.34;5051582;28;20105;-76
2022/09/22 05:18:31;;;;;;;9.30;7.18;;;;;;;5.79;80.24;102265.50;5049353;28;20024;-75
2022/09/22 05:20:56;;;;;;;12.00;7.10;;;;;;;5.78;80.27;102274.94;5050007;28;20024;-75
2022/09/22 05:23:21;;;;;;;11.07;7.57;;;;;;;5.80;79.91;102271.50;5041723;28;20452;-75
2022/09/22 05:25:46;;;;;;;12.88;8.30;;;;;;;5.79;80.04;102273.25;5049640;28;20045;-75
2022/09/22 05:28:12;;;;;;;14.10;8.57;;;;;;;5.76;79.73;102268.00;5039374;28;20037;-75
2022/09/22 05:30:37;;;;;;;14.60;8.35;;;;;;;5.75;80.32;102274.88;5041455;28;20029;-75
2022/09/22 05:33:03;;;;;;;11.30;7.45;;;;;;;5.72;80.11;102276.53;5037292;28;20079;-75
2022/09/22 05:35:28;;;;;;;9.15;6.07;;;;;;;5.68;80.38;102273.03;5040901;28;20041;-75
2022/09/22 05:37:53;;;;;;;9.52;5.72;;;;;;;5.65;80.14;102272.09;5035123;28;20112;-75
2022/09/22 05:40:22;;;;;;;8.10;5.10;;;;;;;5.58;79.80;102277.16;5047950;28;20530;-75
2022/09/22 05:42:50;;;;;;;8.40;5.45;;;;;;;5.54;79.73;102274.50;5022856;28;20758;-75
2022/09/22 05:45:17;;;;;;;8.85;4.82;;;;;;;5.53;80.44;102271.03;5048907;28;20029;-75
2022/09/22 05:47:42;;;;;;;7.93;5.28;;;;;;;5.52;80.44;102282.22;5024205;28;20107;-75
2022/09/22 05:50:10;;;;;;;9.68;5.57;;;;;;;5.52;81.07;102282.22;5039654;28;20120;-75
2022/09/22 05:52:36;;;;;;;7.80;5.55;;;;;;;5.54;81.11;102283.13;5046733;28;20029;-75
2022/09/22 05:55:02;;;;;;;10.32;6.53;;;;;;;5.57;80.94;102285.75;5050735;28;20029;-75
2022/09/22 05:57:27;;;;;;;9.00;6.10;;;;;;;5.59;80.77;102280.59;5043025;28;20029;-75
2022/09/22 05:59:55;;;;;;;9.13;6.50;;;;;;;5.58;80.98;102287.50;5041593;28;20105;-75
2022/09/22 06:02:24;;;;;;;8.60;6.70;;;;;;;5.60;82.08;102290.97;5045885;28;20135;-75
2022/09/22 06:04:51;;;;;;;8.10;6.25;;;;;;;5.64;81.58;102286.72;5042336;28;20021;-75
2022/09/22 06:07:19;;;;;;;10.35;6.82;;;;;;;5.70;81.63;102285.97;5046253;28;20152;-75
2022/09/22 06:09:44;;;;;;;9.00;6.65;;;;;;;5.73;81.77;102284.31;5049084;28;20116;-75
2022/09/22 06:12:10;;;;;;;9.55;6.55;;;;;;;5.77;81.65;102286.09;5030596;28;20121;-75
2022/09/22 06:14:35;;;;;;;10.07;6.85;;;;;;;5.83;81.80;102282.75;5043266;28;20035;-75
2022/09/22 06:17:02;;;;;;;9.07;6.97;;;;;;;5.88;82.34;102288.88;5047517;28;20181;-75
2022/09/22 06:19:28;;;;;;;10.25;7.25;;;;;;;5.96;82.20;102289.00;5043218;28;20017;-75
2022/09/22 06:21:54;;;;;;;10.48;7.13;;;;;;;6.03;82.64;102284.84;5041873;28;20013;-75
2022/09/22 06:24:19;;;;;;;12.63;7.30;;;;;;;6.10;82.63;102283.22;5044566;28;20017;-75
2022/09/22 06:26:44;;;;;;;9.75;7.05;;;;;;;6.15;81.91;102281.59;5035164;28;20033;-75
2022/09/22 06:29:10;;;;;;;9.45;7.10;;;;;;;6.20;82.59;102278.22;5037222;28;20029;-75
2022/09/22 06:31:36;;;;;;;13.88;7.60;;;;;;;6.25;82.63;102280.88;5035232;28;20021;-75
2022/09/22 06:34:01;;;;;;;9.35;7.65;;;;;;;6.32;82.70;102282.72;5016572;28;20036;-75
2022/09/22 06:36:30;;;;;;;10.27;7.32;;;;;;;6.38;83.14;102279.34;5033653;28;20020;-75
2022/09/22 06:38:58;;;;;;;11.07;8.40;;;;;;;6.43;83.41;102285.47;5027801;28;20483;-75
2022/09/22 06:41:25;;;;;;;11.60;8.43;;;;;;;6.49;83.73;102282.97;5043475;28;20033;-76
2022/09/22 06:43:54;;;;;;;11.00;8.18;;;;;;;6.57;83.97;102279.63;5023444;28;20025;-76
2022/09/22 06:46:22;;;;;;;11.48;8.52;;;;;;;6.64;84.10;102268.53;5024311;28;20113;-75
2022/09/22 06:48:49;;;;;;;10.63;7.97;;;;;;;6.71;84.23;102275.50;5027027;28;20082;-76
2022/09/22 06:51:15;;;;;;;12.10;8.32;;;;;;;6.77;84.71;102275.59;5046662;28;20028;-76
2022/09/22 06:53:40;;;;;;;12.90;8.95;;;;;;;6.84;84.64;102271.38;5043072;28;20033;-75
2022/09/22 06:56:06;;;;;;;11.10;8.82;;;;;;;6.92;84.92;102274.06;5045637;28;20043;-75
2022/09/22 06:58:31;;;;;;;12.00;8.85;;;;;;;7.00;84.93;102277.63;5045932;28;20427;-75
2022/09/22 07:01:05;;;;;;;15.48;9.57;;;;;;;7.08;85.47;102272.56;5045187;28;20752;-75
2022/09/22 07:03:31;;;;;;;13.98;10.00;;;;;;;7.17;85.16;102270.06;5024528;28;20124;-75
2022/09/22 07:06:01;;;;;;;14.00;9.57;;;;;;;7.24;85.17;102266.69;5041649;28;20104;-76
2022/09/22 07:08:28;;;;;;;11.65;9.15;;;;;;;7.32;85.52;102276.25;5038042;28;20040;-76
2022/09/22 07:11:00;;;;;;;12.60;9.77;;;;;;;7.39;85.59;102268.56;5043757;28;20039;-76
2022/09/22 07:13:28;;;;;;;12.65;9.73;;;;;;;7.45;85.63;102265.16;5042288;28;20642;-75
2022/09/22 07:15:59;;;;;;;13.23;10.27;;;;;;;7.53;85.93;102267.84;5043157;28;20021;-75
2022/09/22 07:18:24;;;;;;;14.15;10.38;;;;;;;7.60;86.17;102270.50;5035631;28;20149;-75
2022/09/22 07:20:49;;;;;;;14.35;10.32;;;;;;;7.67;86.27;102263.69;5041571;28;20072;-75
2022/09/22 07:23:17;;;;;;;13.48;10.52;;;;;;;7.74;86.42;102267.19;5042621;28;20102;-75
2022/09/22 07:25:55;;;;;;;13.27;10.55;;;;;;;7.81;86.59;102262.94;5042606;28;20025;-76
2022/09/22 07:28:22;;;;;;;14.75;11.15;;;;;;;7.88;86.42;102259.50;5025054;28;20800;-76
2022/09/22 07:30:48;;;;;;;16.17;11.05;;;;;;;7.97;86.40;102269.09;5043176;28;20480;-75
2022/09/22 07:33:13;;;;;;;14.30;11.13;;;;;;;8.04;86.00;102268.31;5039280;28;20049;-75
2022/09/22 07:35:38;;;;;;;15.27;11.43;;;;;;;8.11;85.72;102266.63;5040939;28;20136;-75
2022/09/22 07:38:04;;;;;;;13.48;10.50;;;;;;;8.18;86.02;102268.41;5039970;28;20071;-75
2022/09/22 07:40:30;;;;;;;13.82;9.68;;;;;;;8.25;86.00;102264.13;5038655;28;20499;-75
2022/09/22 07:42:55;;;;;;;14.50;9.70;;;;;;;8.32;85.85;102263.31;5042700;28;20033;-75
2022/09/22 07:45:22;;;;;;;12.38;9.35;;;;;;;8.38;85.74;102252.97;5040742;28;20619;-75
2022/09/22 07:50:31;;;;;;;11.90;8.63;;;;;;;8.55;85.14;102265.22;5045891;28;20102;-75
2022/09/22 07:52:56;;;;;;;13.13;8.85;;;;;;;8.62;84.88;102260.06;5043882;28;20037;-75
2022/09/22 07:55:23;;;;;;;11.85;8.63;;;;;;;8.69;84.33;102257.50;5038212;28;20542;-75
2022/09/22 07:57:58;;;;;;;11.38;8.48;;;;;;;8.74;84.28;102264.47;5045009;28;20033;-76
2022/09/22 08:00:25;;;;;;;10.43;8.63;;;;;;;8.81;84.18;102262.75;5044637;28;20033;-76
2022/09/22 08:02:53;;;;;;;13.15;8.52;;;;;;;8.88;84.22;102259.31;5043171;28;20033;-75
2022/09/22 08:05:18;;;;;;;10.65;8.50;;;;;;;8.97;83.63;102261.06;5042833;28;20044;-75
2022/09/22 08:07:44;;;;;;;11.60;8.32;;;;;;;9.05;83.89;102258.53;5038868;28;20053;-75
2022/09/22 08:10:12;;;;;;;12.88;8.90;;;;;;;9.11;84.26;102250.75;5039715;28;20575;-76
2022/09/22 08:12:38;;;;;;;11.10;8.65;;;;;;;9.17;83.80;102258.56;5039489;28;20025;-75
2022/09/22 08:15:04;;;;;;;11.48;8.50;;;;;;;9.23;83.26;102250.78;5037867;28;20036;-75
2022/09/22 08:17:29;;;;;;;12.90;8.82;;;;;;;9.32;83.15;102251.69;5034111;28;20029;-77
2022/09/22 08:19:55;;;;;;;12.82;8.60;;;;;;;9.40;83.08;102245.63;5034822;28;20031;-75
2022/09/22 08:22:21;;;;;;;14.85;9.05;;;;;;;9.49;83.26;102255.16;5037559;28;20044;-75
2022/09/22 08:24:46;;;;;;;12.70;8.85;;;;;;;9.56;82.64;102251.69;5033458;28;20035;-76
2022/09/22 08:27:12;;;;;;;12.10;8.43;;;;;;;9.65;82.64;102248.25;5037053;28;20029;-75
2022/09/22 08:29:37;;;;;;;14.65;8.63;;;;;;;9.74;82.40;102243.94;5035756;28;20028;-77
2022/09/22 08:32:02;;;;;;;12.65;9.10;;;;;;;9.81;82.64;102240.50;5036209;28;20531;-75
2022/09/22 08:34:28;;;;;;;13.55;9.32;;;;;;;9.89;82.36;102238.72;5035722;28;20033;-76
2022/09/22 08:36:54;;;;;;;11.35;8.57;;;;;;;9.96;81.30;102239.59;5035843;28;20408;-76
2022/09/22 08:39:20;;;;;;;11.13;8.77;;;;;;;10.03;80.96;102243.94;5038038;28;20022;-76
2022/09/22 08:42:17;;;;;;;13.30;9.57;;;;;;;10.08;80.31;102244.78;5037264;28;20083;-75
2022/09/22 08:45:05;;;;;;;10.43;8.15;;;;;;;10.12;80.36;102236.09;5036731;28;20032;-75
2022/09/22 08:53:23;;;;;;;11.70;8.60;;;;;;;10.30;80.42;102242.16;5047931;28;20036;-75
2022/09/22 08:56:04;;;;;;;12.35;9.10;;;;;;;10.36;80.28;102236.06;5048382;28;20067;-78
2022/09/22 08:58:36;;;;;;;13.13;8.55;;;;;;;10.41;79.42;102237.84;5048361;28;20141;-77
2022/09/22 09:01:09;;;;;;;10.73;8.45;;;;;;;10.48;79.93;102243.91;5047253;28;20024;-77
2022/09/22 09:03:54;;;;;;;10.48;8.00;;;;;;;10.56;79.77;102244.72;5048070;28;20169;-76
2022/09/22 09:06:41;;;;;;;11.05;8.57;;;;;;;10.63;80.11;102248.16;5048074;28;20124;-76
2022/09/22 09:09:39;;;;;;;12.10;7.85;;;;;;;10.71;79.76;102248.13;5047084;28;20035;-76
2022/09/22 09:12:07;;;;;;;13.93;8.10;;;;;;;10.77;79.46;102248.97;5024011;28;20036;-76
2022/09/22 09:14:57;;;;;;;12.13;7.95;;;;;;;10.84;79.14;102254.16;5047318;28;20100;-76
2022/09/22 09:17:27;;;;;;;12.60;8.00;;;;;;;10.93;78.31;102248.94;5039575;28;20033;-76
2022/09/22 09:20:16;;;;;;;10.30;7.78;;;;;;;10.99;78.35;102251.50;5044778;28;20029;-76
2022/09/22 09:22:47;;;;;;;9.68;7.63;;;;;;;11.04;78.39;102249.75;5045549;28;20051;-76
2022/09/22 09:25:29;;;;;;;12.23;8.13;;;;;;;11.14;78.04;102245.34;5045253;28;20025;-77
2022/09/22 09:27:59;;;;;;;9.63;7.80;;;;;;;11.23;77.32;102239.22;5044217;28;20059;-76
2022/09/22 09:30:25;;;;;;;10.82;8.00;;;;;;;11.29;77.82;102244.38;5044829;28;20041;-77
2022/09/22 09:32:59;;;;;;;10.48;7.97;;;;;;;11.36;77.51;102247.81;5043241;28;20040;-76
2022/09/22 09:35:44;;;;;;;10.60;7.57;;;;;;;11.41;77.24;102240.84;5027773;28;20311;-76
2022/09/22 09:38:27;;;;;;;9.77;7.90;;;;;;;11.48;76.49;102237.34;5044543;28;20028;-81
2022/09/22 09:41:00;;;;;;;11.57;7.15;;;;;;;11.57;76.66;102241.63;5044262;28;20487;-76
2022/09/22 09:43:27;;;;;;;8.55;6.97;;;;;;;11.66;75.71;102238.91;5041790;28;20067;-76
2022/09/22 09:46:11;;;;;;;10.63;7.93;;;;;;;11.77;76.36;102238.00;5044495;28;20033;-77
2022/09/22 09:48:50;;;;;;;9.07;7.10;;;;;;;11.83;75.11;102236.19;5042377;28;20037;-76
2022/09/22 09:51:15;;;;;;;9.75;7.78;;;;;;;11.90;74.37;102236.13;5035734;28;20041;-76
2022/09/22 09:53:46;;;;;;;11.20;7.75;;;;;;;11.96;74.94;102242.13;5037660;28;20457;-76
2022/09/22 09:56:27;;;;;;;10.88;7.95;;;;;;;12.05;75.64;102242.97;5035399;28;20036;-77
2022/09/22 10:01:41;;;;;;;9.60;7.18;;;;;;;12.20;74.40;102240.22;5032782;28;20039;-77
2022/09/22 10:04:36;;;;;;;8.73;6.80;;;;;;;12.28;75.30;102227.97;5031936;28;20124;-76
2022/09/22 10:07:20;;;;;;;11.20;7.75;;;;;;;12.39;74.78;102227.84;5031365;28;20423;-77
2022/09/22 10:09:48;;;;;;;10.57;7.45;;;;;;;12.47;72.32;102225.13;5036380;28;20108;-77
2022/09/22 10:12:21;;;;;;;8.60;6.10;;;;;;;12.53;71.41;102222.47;5034124;28;20083;-77
2022/09/22 10:14:58;;;;;;;9.23;6.43;;;;;;;12.58;71.67;102217.19;5034716;28;20051;-76
2022/09/22 10:17:38;;;;;;;11.15;7.25;;;;;;;12.63;72.24;102212.78;5032814;28;20052;-76
2022/09/22 10:20:25;;;;;;;9.77;6.75;;;;;;;12.69;72.78;102214.44;5035888;28;20021;-76
2022/09/22 10:22:51;;;;;;;9.00;7.07;;;;;;;12.72;70.57;102222.25;5034448;28;20025;-76
2022/09/22 10:25:21;;;;;;;10.13;6.35;;;;;;;12.77;69.93;102211.72;5034109;28;20156;-76
2022/09/22 10:28:08;;;;;;;8.63;6.40;;;;;;;12.84;70.68;102208.16;5034404;28;20028;-76
2022/09/22 10:30:36;;;;;;;7.95;6.13;;;;;;;12.93;69.51;102217.63;5034653;28;20028;-76
2022/09/22 10:33:04;;;;;;;8.10;6.13;;;;;;;12.99;68.36;102209.69;5032758;28;20063;-76
2022/09/22 10:35:32;;;;;;;7.25;5.97;;;;;;;13.05;68.27;102204.41;5035672;28;20036;-76
2022/09/22 10:38:13;;;;;;;7.40;5.45;;;;;;;13.11;65.37;102193.88;5030446;28;20037;-76
2022/09/22 10:40:42;;;;;;;7.93;5.20;;;;;;;13.15;66.31;102194.66;5033799;28;20545;-76
2022/09/22 10:43:28;;;;;;;8.70;5.10;;;;;;;13.21;66.06;102190.22;5035414;28;20429;-76
2022/09/22 10:46:23;;;;;;;6.20;4.50;;;;;;;13.28;66.88;102188.38;5033253;28;20271;-76
2022/09/22 10:49:04;;;;;;;6.55;4.57;;;;;;;13.35;65.80;102183.91;5027748;28;20400;-76
2022/09/22 10:51:53;;;;;;;7.00;4.40;;;;;;;13.41;65.03;102181.25;5030445;28;20111;-76
2022/09/22 10:54:40;;;;;;;4.25;3.08;;;;;;;13.42;60.92;102182.97;5036583;28;20302;-76
2022/09/22 10:57:17;;;;;;;5.28;3.83;;;;;;;13.55;64.24;102177.53;5036918;28;20032;-77
2022/09/22 10:59:59;;;;;;;5.80;3.20;;;;;;;13.64;61.35;102185.22;5034864;28;20455;-76
2022/09/22 11:02:38;;;;;;;5.22;3.40;;;;;;;13.71;62.63;102180.75;5031945;28;20112;-76
2022/09/22 11:12:15;;;;;;;5.22;3.50;;;;;;;13.75;63.07;102180.66;5033085;28;20036;-76
2022/09/22 11:14:27;;;;;;;5.13;2.70;;;;;;;13.88;62.48;102169.97;5038130;28;20036;-77
2022/09/22 11:17:16;;;;;;;3.95;2.80;;;;;;;13.92;59.63;102169.03;5040498;28;20037;-76
2022/09/22 11:20:00;;;;;;;5.15;2.83;;;;;;;13.98;61.43;102171.56;5027261;28;20040;-77
2022/09/22 11:22:50;;;;;;;3.58;2.75;;;;;;;14.02;59.98;102170.59;5029290;28;20017;-77
2022/09/22 11:25:27;;;;;;;5.10;3.45;;;;;;;14.08;59.67;102177.47;5019542;28;20029;-77
2022/09/22 11:28:14;;;;;;;4.10;2.35;;;;;;;14.16;58.44;102172.09;5042125;28;20425;-77
2022/09/22 11:30:44;;;;;;;3.10;1.98;;;;;;;14.21;57.12;102171.09;5036806;28;20035;-76
2022/09/22 11:33:31;;;;;;;2.77;1.50;;;;;;;14.22;57.38;102164.09;5030518;28;20492;-76
2022/09/22 11:36:02;;;;;;;2.25;1.75;;;;;;;14.27;59.33;102157.03;5031547;28;20067;-77
2022/09/22 11:38:33;;;;;;;2.78;1.98;;;;;;;14.35;58.63;102155.09;5027841;28;20082;-76
2022/09/22 11:41:29;;;;;;;3.22;2.22;;;;;;;14.41;59.37;102149.75;5032729;28;20091;-76
2022/09/22 11:44:19;;;;;;;3.78;2.00;;;;;;;14.48;57.75;102149.63;5031647;28;20123;-76
2022/09/22 11:47:15;;;;;;;4.80;2.13;;;;;;;14.56;56.62;102140.72;5036876;28;20033;-76
2022/09/22 11:49:56;;;;;;;4.53;2.03;;;;;;;14.62;56.55;102139.72;5041249;28;20060;-76
2022/09/22 11:52:42;;;;;;;3.63;1.90;;;;;;;14.69;58.71;102136.09;5036403;28;20037;-76
2022/09/22 11:55:33;;;;;;;3.72;2.35;;;;;;;14.78;57.27;102131.53;5041410;28;20045;-76
2022/09/22 11:58:02;;;;;;;4.00;2.47;;;;;;;14.92;56.84;102133.88;5037157;28;20095;-76
2022/09/22 12:00:35;;;;;;;4.30;2.45;;;;;;;14.98;56.16;102129.34;5038006;28;20035;-77
2022/09/22 12:03:08;;;;;;;4.43;2.80;;;;;;;15.06;56.34;102121.28;5021259;28;20029;-77